Latest Weather Observations for Kempsey Airport

IDN60801

Issued at 12:32 pm EST Saturday 23 May 2015 (issued every 30 minutes, with the page automatically refreshed every 10 minutes)

About weather observations | Map of weather stations | Latest weather observations for NSW | Other Formats
Station Details ID: 059007 Name: KEMPSEY AIRPORT AWS Lat: -31.07 Lon: 152.77 Height: 13.0 m
Data from the previous 72 hours. | See also: Recent months for locations in New South Wales
Date/Time
EST
Temp
°C
App
Temp
°C
Dew
Point
Rel
Hum
%
Delta-T
°C
Wind Press
QNH
hPa
Press
MSL
hPa
Rain
since 9 am
mm
Dir
 
Spd
km/h
Gust
km/h
Spd
kts
Gust
kts
23/12:30pm 18.5 15.4 11.6 64 3.8 SSW 19 28 10 15 1025.8 1025.8 0.0
23/12:00pm 19.2 16.2 12.0 63 4.0 SSW 19 26 10 14 1026.0 1026.0 0.0
23/11:30am 18.3 15.0 11.6 65 3.7 SSW 20 28 11 15 1026.5 1026.5 0.0
23/11:00am 18.9 15.3 10.7 59 4.4 SSW 20 32 11 17 1026.8 1026.8 0.0
23/10:30am 18.5 15.0 10.3 59 4.4 SSW 19 26 10 14 1026.7 1026.7 0.0
23/10:00am 18.2 14.8 10.6 61 4.1 SSW 19 26 10 14 1026.9 1026.9 0.0
23/09:30am 17.3 12.8 10.0 62 3.9 SSW 24 35 13 19 1026.8 1026.8 0.0
23/09:00am 16.9 13.2 10.1 64 3.6 SSW 20 28 11 15 1026.4 1026.4 8.2
23/08:30am 15.8 12.8 10.8 72 2.6 SSW 17 20 9 11 1026.1 1026.1 8.2
23/08:00am 14.8 11.7 10.2 74 2.4 SSW 17 26 9 14 1025.6 1025.6 8.2
23/07:30am 14.2 11.3 9.8 75 2.3 SSW 15 20 8 11 1025.3 1025.3 8.2
23/07:00am 13.8 10.1 9.5 75 2.2 SSW 19 28 10 15 1025.0 1025.0 8.2
23/06:30am 12.5 9.5 9.1 80 1.7 SW 15 19 8 10 1024.6 1024.6 8.2
23/06:00am 12.9 10.3 9.2 78 1.9 SW 13 19 7 10 1024.3 1024.3 8.2
23/05:30am 12.9 9.9 9.4 79 1.8 SW 15 19 8 10 1023.8 1023.8 8.2
23/05:00am 12.8 8.5 9.4 80 1.7 SW 22 28 12 15 1023.4 1023.4 8.2
23/04:30am 12.7 8.9 9.7 82 1.5 SSW 20 26 11 14 1023.0 1023.0 8.2
23/04:00am 12.7 8.9 9.7 82 1.5 SSW 20 28 11 15 1023.0 1023.0 8.2
23/03:30am 12.6 9.4 10.0 84 1.3 SW 17 26 9 14 1022.8 1022.8 8.2
23/03:00am 12.2 9.4 10.1 87 1.1 SW 15 19 8 10 1023.1 1023.1 8.2
23/02:30am 13.1 9.5 10.5 84 1.4 SW 20 32 11 17 1022.9 1022.9 8.2
23/02:00am 13.0 10.6 10.0 82 1.5 SW 13 24 7 13 1022.8 1022.8 8.2
23/01:30am 13.0 9.4 10.4 84 1.3 SW 20 28 11 15 1022.6 1022.6 8.2
23/01:00am 13.2 9.8 10.7 85 1.3 S 19 26 10 14 1022.6 1022.6 8.2
23/12:30am 13.1 10.1 10.8 86 1.2 SSW 17 26 9 14 1022.7 1022.7 8.2
23/12:00am 13.5 10.3 11.2 86 1.2 SSW 19 24 10 13 1022.6 1022.6 8.2
 
Date/Time
EST
Temp
°C
App
Temp
°C
Dew
Point
Rel
Hum
%
Delta-T
°C
Wind Press
QNH
hPa
Press
MSL
hPa
Rain
since 9 am
mm
Dir
 
Spd
km/h
Gust
km/h
Spd
kts
Gust
kts
22/11:30pm 13.7 10.2 10.9 83 1.5 SSW 20 35 11 19 1022.5 1022.5 8.2
22/11:00pm 14.0 8.8 10.4 79 1.9 SSW 28 37 15 20 1021.9 1021.9 8.2
22/10:30pm 14.2 9.1 10.6 79 1.9 SW 28 39 15 21 1021.7 1021.7 8.2
22/10:00pm 14.0 9.8 11.0 82 1.6 SW 24 41 13 22 1021.4 1021.4 8.2
22/09:30pm 14.4 9.8 11.0 80 1.8 SW 26 37 14 20 1020.8 1020.8 7.8
22/09:00pm 14.0 10.8 11.3 84 1.4 SW 19 30 10 16 1020.6 1020.6 7.8
22/08:30pm 14.0 10.7 11.7 86 1.2 SW 20 30 11 16 1020.2 1020.2 7.8
22/08:00pm 14.1 10.2 12.0 87 1.1 SSW 24 35 13 19 1019.9 1019.9 7.8
22/07:30pm 13.7 10.1 11.9 89 1.0 SW 22 32 12 17 1019.5 1019.5 7.8
22/07:00pm 14.0 10.1 12.0 88 1.1 SSW 24 33 13 18 1019.1 1019.1 7.4
22/06:30pm 13.8 9.5 12.0 89 1.0 SW 26 39 14 21 1018.3 1018.3 5.6
22/06:00pm 14.3 10.0 12.0 86 1.2 SW 26 37 14 20 1017.7 1017.7 3.0
22/05:30pm 14.1 10.9 11.8 86 1.2 SW 20 28 11 15 1016.8 1016.8 2.0
22/05:00pm 14.3 10.3 11.8 85 1.3 SW 24 33 13 18 1016.1 1016.1 2.0
22/04:30pm 14.8 10.8 11.8 82 1.6 SW 24 33 13 18 1015.6 1015.6 1.8
22/04:15pm 16.5 11.6 11.2 71 2.9 SW 28 52 15 28 1015.3 1015.3 1.2
22/04:00pm 16.9 11.4 10.7 67 3.3 SW 30 43 16 23 1015.1 1015.1 1.2
22/03:43pm 17.2 12.0 10.1 63 3.8 SW 28 46 15 25 1014.8 1014.8 1.2
22/03:30pm 17.6 11.6 10.0 61 4.0 SW 32 48 17 26 1014.3 1014.3 1.2
22/03:28pm 17.7 11.6 9.8 60 4.2 SW 32 48 17 26 1014.3 1014.3 1.2
22/03:00pm 17.8 13.6 9.9 60 4.2 WSW 22 30 12 16 1013.9 1013.9 1.2
22/02:30pm 18.1 13.5 9.5 57 4.5 SW 24 39 13 21 1013.7 1013.7 1.2
22/02:00pm 18.6 14.4 9.9 57 4.6 WSW 22 32 12 17 1013.3 1013.3 1.2
22/01:30pm 18.8 14.5 10.6 59 4.4 SW 24 35 13 19 1013.2 1013.2 1.2
22/01:00pm 19.0 14.9 10.0 56 4.8 WSW 22 35 12 19 1013.2 1013.2 1.2
22/12:59pm 19.1 15.1 10.4 57 4.7 WSW 22 35 12 19 1013.2 1013.2 1.2
22/12:30pm 19.1 17.2 11.9 63 4.0 W 13 17 7 9 1013.3 1013.3 1.2
22/12:00pm 18.8 18.1 13.2 70 3.2 W 9 15 5 8 1013.6 1013.6 1.2
22/11:30am 17.5 16.5 13.4 77 2.3 WNW 11 15 6 8 1013.8 1013.8 1.2
22/11:00am 16.3 14.5 12.1 76 2.3 WNW 13 17 7 9 1014.3 1014.3 1.2
22/10:30am 16.0 15.0 13.5 85 1.4 WNW 11 17 6 9 1014.7 1014.7 1.2
22/10:00am 14.7 13.7 12.2 85 1.4 W 9 17 5 9 1015.1 1015.1 1.0
22/09:30am 15.3 13.1 12.1 81 1.7 W 15 20 8 11 1015.0 1015.0 0.0
22/09:00am 15.5 14.7 13.0 85 1.4 W 9 15 5 8 1015.0 1015.0 9.4
22/08:30am 14.3 13.2 13.0 92 0.7 W 11 15 6 8 1014.9 1014.9 9.0
22/08:00am 13.8 12.1 12.5 92 0.7 NW 13 15 7 8 1014.7 1014.7 9.0
22/07:30am 13.4 12.0 12.3 93 0.6 WNW 11 17 6 9 1014.6 1014.6 9.0
22/07:00am 12.9 11.4 11.8 93 0.6 WNW 11 15 6 8 1014.4 1014.4 9.0
22/06:30am 12.8 11.6 11.7 93 0.6 WNW 9 13 5 7 1014.2 1014.2 9.0
22/06:00am 13.1 10.9 12.2 94 0.5 WNW 15 20 8 11 1013.9 1013.9 9.0
22/05:30am 12.9 11.8 11.8 93 0.6 WNW 9 13 5 7 1013.8 1013.8 9.0
22/05:00am 13.2 12.7 12.1 93 0.6 WNW 6 7 3 4 1013.6 1013.6 9.0
22/04:30am 13.6 13.1 12.5 93 0.6 WSW 7 13 4 7 1013.9 1013.9 8.8
22/04:00am 13.8 12.6 12.7 93 0.6 WNW 11 15 6 8 1013.9 1013.9 8.8
22/03:30am 13.8 12.6 12.7 93 0.6 WNW 11 15 6 8 1014.1 1014.1 8.8
22/03:00am 13.8 14.2 12.5 92 0.7 NW 2 6 1 3 1014.1 1014.1 8.8
22/02:30am 13.9 13.0 12.6 92 0.7 NW 9 11 5 6 1014.6 1014.6 8.4
22/02:00am 14.0 12.8 12.7 92 0.7 NW 11 19 6 10 1014.9 1014.9 8.2
22/01:30am 14.3 12.4 13.0 92 0.7 WNW 15 19 8 10 1015.0 1015.0 6.6
22/01:00am 14.5 13.4 13.2 92 0.7 WNW 11 13 6 7 1015.1 1015.1 4.8
22/12:30am 14.5 13.8 13.2 92 0.7 W 9 13 5 7 1015.4 1015.4 4.8
22/12:00am 14.5 13.4 13.2 92 0.7 WNW 11 13 6 7 1015.8 1015.8 4.8
 
Date/Time
EST
Temp
°C
App
Temp
°C
Dew
Point
Rel
Hum
%
Delta-T
°C
Wind Press
QNH
hPa
Press
MSL
hPa
Rain
since 9 am
mm
Dir
 
Spd
km/h
Gust
km/h
Spd
kts
Gust
kts
21/11:30pm 14.6 13.2 13.5 93 0.6 W 13 17 7 9 1016.0 1016.0 4.8
21/11:00pm 14.6 14.0 13.5 93 0.6 W 9 11 5 6 1016.2 1016.2 4.8
21/10:30pm 14.2 13.8 13.1 93 0.6 WNW 7 9 4 5 1016.2 1016.2 4.8
21/10:00pm 14.2 14.0 13.1 93 0.6 WNW 6 9 3 5 1016.5 1016.5 4.8
21/09:30pm 14.6 14.6 13.5 93 0.6 WNW 6 7 3 4 1016.5 1016.5 4.8
21/09:00pm 14.5 14.2 13.4 93 0.6 W 7 9 4 5 1016.8 1016.8 4.8
21/08:30pm 14.4 13.7 13.3 93 0.6 WSW 9 11 5 6 1016.8 1016.8 4.8
21/08:00pm 14.9 15.0 13.8 93 0.6 NW 6 9 3 5 1017.0 1017.0 4.8
21/07:30pm 15.3 16.3 14.3 94 0.6 WNW 2 7 1 4 1017.2 1017.2 4.8
21/07:00pm 15.1 16.4 14.0 93 0.6 CALM 0 0 0 0 1016.8 1016.8 4.8
21/06:30pm 14.9 16.0 13.6 92 0.7 CALM 0 0 0 0 1016.6 1016.6 4.8
21/06:00pm 15.2 16.4 13.9 92 0.7 CALM 0 0 0 0 1016.9 1016.9 4.8
21/05:30pm 15.5 16.8 14.0 91 0.8 CALM 0 0 0 0 1017.1 1017.1 4.8
21/05:00pm 16.0 17.1 14.5 91 0.9 NE 2 7 1 4 1016.7 1016.7 4.8
21/04:30pm 16.4 18.0 14.8 90 0.9 CALM 0 9 0 5 1016.7 1016.7 4.8
21/04:00pm 16.6 16.9 14.6 88 1.1 NW 6 7 3 4 1017.2 1017.2 4.8
21/03:30pm 17.0 18.5 14.6 86 1.4 CALM 0 4 0 2 1016.9 1016.9 4.8
21/03:00pm 17.1 18.4 14.2 83 1.7 CALM 0 6 0 3 1016.3 1016.3 4.8
21/02:30pm 17.2 18.6 14.3 83 1.7 CALM 0 0 0 0 1016.4 1016.4 4.8
21/02:00pm 16.9 17.0 14.4 85 1.4 WNW 7 9 4 5 1016.6 1016.6 4.8
21/01:30pm 16.8 17.4 14.3 85 1.4 NNW 4 7 2 4 1016.5 1016.5 4.8
21/01:00pm 16.9 18.0 14.7 87 1.3 NW 2 7 1 4 1016.9 1016.9 4.8
21/12:30pm 16.3 17.7 14.5 89 1.0 CALM 0 0 0 0 1017.2 1017.2 4.8
21/12:00pm 16.1 17.5 14.5 90 0.9 CALM 0 0 0 0 1018.0 1018.0 4.8
21/11:30am 15.8 17.2 14.5 92 0.7 CALM 0 0 0 0 1018.3 1018.3 4.8
21/11:00am 15.6 17.0 14.5 93 0.6 CALM 0 4 0 2 1018.8 1018.8 4.6
21/10:30am 15.4 16.8 14.3 93 0.6 CALM 0 0 0 0 1019.0 1019.0 3.8
21/10:00am 15.4 16.8 14.3 93 0.6 CALM 0 0 0 0 1019.4 1019.4 2.8
21/09:30am 15.2 16.4 13.9 92 0.7 CALM 0 0 0 0 1019.8 1019.8 1.4
21/09:00am 15.2 16.4 13.9 92 0.7 CALM 0 0 0 0 1020.1 1020.1 4.6
21/08:30am 15.2 16.5 14.1 93 0.6 CALM 0 0 0 0 1019.5 1019.5 4.2
21/08:00am 15.0 16.2 13.7 92 0.7 CALM 0 4 0 2 1019.7 1019.7 3.6
21/07:30am 15.1 15.2 13.8 92 0.7 WNW 6 7 3 4 1019.9 1019.9 2.4
21/07:00am 14.8 13.9 13.7 93 0.6 WSW 11 15 6 8 1019.3 1019.3 1.6
21/06:30am 14.7 15.8 13.4 92 0.7 CALM 0 0 0 0 1018.2 1018.2 1.6
21/06:00am 14.9 14.9 13.6 92 0.7 SW 6 11 3 6 1018.1 1018.1 1.4
21/05:30am 14.8 15.9 13.5 92 0.7 CALM 0 0 0 0 1017.7 1017.7 0.2
21/05:00am 14.9 16.0 13.6 92 0.7 CALM 0 0 0 0 1016.9 1016.9 0.2
21/04:30am 15.1 16.2 13.6 91 0.8 CALM 0 0 0 0 1016.9 1016.9 0.2
21/04:00am 15.3 16.4 13.5 89 1.0 CALM 0 0 0 0 1016.8 1016.8 0.2
21/03:30am 15.5 16.6 13.5 88 1.1 CALM 0 4 0 2 1017.2 1017.2 0.2
21/03:00am 15.6 15.9 13.3 86 1.3 NNE 4 7 2 4 1017.2 1017.2 0.2
21/02:30am 16.3 17.2 12.8 80 1.9 CALM 0 0 0 0 1017.6 1017.6 0.2
21/02:00am 17.1 16.1 12.4 74 2.6 SW 9 11 5 6 1017.5 1017.5 0.2
21/01:30am 18.0 16.4 12.7 71 3.0 W 13 19 7 10 1018.2 1018.2 0.2
21/01:00am 17.7 16.6 13.2 75 2.5 WSW 11 15 6 8 1017.9 1017.9 0.2
21/12:30am 18.6 16.9 13.5 72 2.9 SW 15 22 8 12 1017.6 1017.6 0.2
21/12:00am 18.3 18.4 15.4 83 1.7 SSW 9 17 5 9 1017.6 1017.6 0.2
 
Date/Time
EST
Temp
°C
App
Temp
°C
Dew
Point
Rel
Hum
%
Delta-T
°C
Wind Press
QNH
hPa
Press
MSL
hPa
Rain
since 9 am
mm
Dir
 
Spd
km/h
Gust
km/h
Spd
kts
Gust
kts
20/11:30pm 17.0 16.8 14.8 87 1.3 S 9 9 5 5 1017.5 1017.5 0.2
20/11:00pm 16.4 16.9 14.9 91 0.9 SW 6 7 3 4 1017.6 1017.6 0.2
20/10:30pm 16.3 15.8 14.8 91 0.9 WSW 11 13 6 7 1017.3 1017.3 0.2
20/10:00pm 15.6 15.3 14.3 92 0.7 WSW 9 11 5 6 1017.0 1017.0 0.2
20/09:30pm 15.7 16.3 14.2 91 0.9 W 4 7 2 4 1016.6 1016.6 0.2
20/09:00pm 15.7 17.0 14.2 91 0.8 CALM 0 0 0 0 1016.7 1016.7 0.2
20/08:30pm 15.8 17.1 14.0 89 1.0 CALM 0 6 0 3 1016.5 1016.5 0.2
20/08:00pm 16.1 16.7 14.3 89 1.0 WSW 4 7 2 4 1016.4 1016.4 0.2
20/07:30pm 16.5 17.9 14.5 88 1.1 CALM 0 0 0 0 1016.3 1016.3 0.2
20/07:00pm 16.4 17.8 14.4 88 1.1 CALM 0 0 0 0 1016.4 1016.4 0.2
20/06:30pm 16.4 16.4 14.1 86 1.3 NW 7 9 4 5 1016.2 1016.2 0.2
20/06:00pm 16.4 16.9 12.9 80 1.9 W 2 9 1 5 1015.9 1015.9 0.2
20/05:30pm 18.8 17.9 13.6 72 3.0 NE 11 13 6 7 1015.6 1015.6 0.2
20/05:00pm 19.9 19.4 13.8 68 3.5 E 9 11 5 6 1015.6 1015.6 0.2
20/04:30pm 22.0 21.5 14.9 64 4.2 ENE 11 17 6 9 1015.2 1015.2 0.2
20/04:00pm 23.6 23.1 15.9 62 4.7 NE 13 17 7 9 1015.2 1015.2 0.2
20/03:30pm 25.3 25.1 16.7 59 5.3 NNE 13 17 7 9 1014.9 1014.9 0.2
20/03:00pm 26.0 25.6 16.3 55 6.0 NNE 13 17 7 9 1014.9 1014.9 0.2
20/02:30pm 26.1 25.5 13.6 46 7.4 N 9 11 5 6 1014.9 1014.9 0.2
20/02:00pm 26.4 26.5 15.4 50 6.7 NNE 9 15 5 8 1014.9 1014.9 0.2
20/01:30pm 26.1 26.0 13.9 47 7.2 N 7 13 4 7 1015.1 1015.1 0.2
20/01:00pm 26.8 27.4 15.2 49 7.0 NNW 6 13 3 7 1015.5 1015.5 0.2

Other Formats:

Comma delimited format used in spreadsheet applications
http://www.bom.gov.au/fwo/IDN60801/IDN60801.94785.axf

JavaScript Object Notation format (JSON) in row-major order
http://www.bom.gov.au/fwo/IDN60801/IDN60801.94785.json